createdAt,value
2018-07-12T00:00:49.996Z,66.43
2018-07-12T00:03:20.199Z,66.90
2018-07-12T00:05:49.553Z,66.51
2018-07-12T00:08:17.679Z,66.44
2018-07-12T00:10:48.177Z,66.50
2018-07-12T00:13:17.860Z,66.53
2018-07-12T00:15:47.343Z,66.48
2018-07-12T00:18:15.391Z,66.59
2018-07-12T00:20:46.036Z,66.81
2018-07-12T00:23:13.901Z,66.56
2018-07-12T00:25:42.529Z,66.48
2018-07-12T00:28:11.080Z,66.89
2018-07-12T00:30:39.772Z,67.11
2018-07-12T00:33:08.901Z,66.35
2018-07-12T00:35:38.100Z,66.73
2018-07-12T00:38:09.887Z,66.73
2018-07-12T00:40:37.993Z,66.61
2018-07-12T00:43:07.023Z,66.59
2018-07-12T00:45:35.196Z,66.61
2018-07-12T00:48:03.454Z,66.69
2018-07-12T00:50:31.405Z,66.87
2018-07-12T00:53:00.432Z,66.77
2018-07-12T00:55:29.515Z,66.63
2018-07-12T00:57:57.524Z,66.70
2018-07-12T01:00:25.595Z,67.09
2018-07-12T01:02:57.594Z,66.84
2018-07-12T01:05:25.524Z,67.14
2018-07-12T01:07:53.252Z,66.67
2018-07-12T01:12:58.890Z,67.01
2018-07-12T01:15:26.904Z,66.85
2018-07-12T01:17:56.573Z,67.18
2018-07-12T01:20:24.598Z,67.08
2018-07-12T01:22:53.429Z,67.35
2018-07-12T01:25:21.312Z,67.02
2018-07-12T01:27:50.403Z,66.92
2018-07-12T01:30:18.153Z,66.97
2018-07-12T01:32:46.020Z,66.94
2018-07-12T01:35:13.884Z,66.92
2018-07-12T01:37:41.808Z,66.93
2018-07-12T01:40:09.890Z,67.22
2018-07-12T01:42:37.885Z,66.94
2018-07-12T01:45:05.650Z,66.87
2018-07-12T01:47:33.508Z,67.06
2018-07-12T01:50:01.288Z,66.91
2018-07-12T01:52:30.496Z,67.01
2018-07-12T01:54:58.353Z,66.83
2018-07-12T01:57:26.422Z,67.01
2018-07-12T01:59:55.263Z,67.06
2018-07-12T02:02:23.373Z,66.94
2018-07-12T02:04:51.041Z,66.91
2018-07-12T02:07:19.371Z,66.74
2018-07-12T02:09:47.444Z,66.76
2018-07-12T02:12:16.082Z,67.44
2018-07-12T02:14:44.136Z,67.02
2018-07-12T02:17:12.375Z,67.01
2018-07-12T02:19:40.190Z,66.95
2018-07-12T02:22:08.567Z,67.14
2018-07-12T02:24:36.628Z,67.39
2018-07-12T02:27:05.465Z,67.00
2018-07-12T02:29:34.318Z,67.11
2018-07-12T02:32:03.420Z,66.96
2018-07-12T02:34:32.285Z,67.08
2018-07-12T02:37:00.064Z,67.20
2018-07-12T02:39:29.556Z,66.97
2018-07-12T02:41:57.629Z,67.10
2018-07-12T02:44:25.755Z,67.13
2018-07-12T02:46:53.815Z,67.10
2018-07-12T02:49:22.059Z,67.04
2018-07-12T02:51:49.789Z,67.05
2018-07-12T02:54:17.702Z,66.98
2018-07-12T02:56:46.626Z,67.45
2018-07-12T02:59:15.096Z,67.11
2018-07-12T03:01:43.125Z,67.29
2018-07-12T03:04:11.442Z,67.18
2018-07-12T03:06:39.648Z,67.15
2018-07-12T03:09:08.869Z,66.95
2018-07-12T03:11:37.065Z,67.43
2018-07-12T03:14:05.468Z,67.36
2018-07-12T03:16:33.335Z,66.98
2018-07-12T03:19:01.524Z,67.22
2018-07-12T03:21:29.476Z,67.18
2018-07-12T03:23:57.433Z,67.27
2018-07-12T03:26:25.369Z,67.18
2018-07-12T03:28:53.484Z,67.29
2018-07-12T03:31:21.352Z,67.01
2018-07-12T03:33:49.076Z,67.28
2018-07-12T03:36:17.751Z,67.35
2018-07-12T03:38:45.973Z,67.48
2018-07-12T03:41:16.881Z,67.52
2018-07-12T03:43:46.186Z,67.40
2018-07-12T03:46:14.689Z,67.34
2018-07-12T03:48:42.965Z,67.54
2018-07-12T03:51:10.915Z,67.13
2018-07-12T03:53:39.003Z,67.22
2018-07-12T03:56:07.089Z,67.08
2018-07-12T03:58:34.994Z,67.22
2018-07-12T04:01:02.995Z,67.35
2018-07-12T04:03:30.933Z,67.15
2018-07-12T04:05:59.305Z,67.22
2018-07-12T04:08:27.176Z,67.21
2018-07-12T04:10:55.398Z,67.32
2018-07-12T04:13:24.249Z,67.39
2018-07-12T04:15:51.994Z,67.13
2018-07-12T04:18:20.839Z,67.39
2018-07-12T04:20:48.599Z,67.25
2018-07-12T04:23:16.661Z,67.59
2018-07-12T04:25:44.802Z,67.71
2018-07-12T04:28:13.393Z,67.82
2018-07-12T04:30:41.184Z,67.70
2018-07-12T04:33:10.360Z,67.56
2018-07-12T04:38:02.092Z,67.69
2018-07-12T04:40:30.294Z,67.67
2018-07-12T04:42:58.137Z,67.76
2018-07-12T04:45:25.980Z,67.92
2018-07-12T04:47:54.905Z,67.78
2018-07-12T04:50:23.107Z,67.66
2018-07-12T04:52:52.602Z,67.67
2018-07-12T04:55:20.368Z,67.81
2018-07-12T04:57:49.971Z,67.81
2018-07-12T05:00:18.516Z,67.81
2018-07-12T05:02:46.593Z,67.97
2018-07-12T05:05:14.316Z,67.85
2018-07-12T05:07:43.465Z,67.92
2018-07-12T05:10:12.527Z,67.81
2018-07-12T05:12:40.608Z,67.79
2018-07-12T05:15:08.769Z,67.70
2018-07-12T05:17:36.847Z,67.88
2018-07-12T05:20:05.881Z,67.60
2018-07-12T05:22:33.638Z,67.70
2018-07-12T05:25:03.477Z,68.09
2018-07-12T05:27:31.719Z,68.01
2018-07-12T05:29:59.650Z,67.57
2018-07-12T05:35:03.015Z,67.38
2018-07-12T05:37:34.484Z,67.36
2018-07-12T05:40:04.709Z,67.66
2018-07-12T05:42:35.789Z,67.42
2018-07-12T05:45:06.374Z,67.46
2018-07-12T05:47:37.342Z,67.49
2018-07-12T05:50:08.056Z,67.65
2018-07-12T05:52:38.377Z,67.47
2018-07-12T05:55:08.681Z,67.73
2018-07-12T05:57:37.987Z,67.89
2018-07-12T06:00:07.800Z,68.00
2018-07-12T06:08:40.390Z,67.51
2018-07-12T06:11:09.739Z,67.42
2018-07-12T06:13:40.786Z,67.49
2018-07-12T06:16:13.546Z,67.36
2018-07-12T06:18:44.744Z,67.75
2018-07-12T06:21:17.147Z,67.57
2018-07-12T06:23:48.564Z,67.44
2018-07-12T06:26:19.284Z,67.58
2018-07-12T06:28:48.891Z,67.42
2018-07-12T06:31:19.615Z,67.64
2018-07-12T06:33:50.541Z,67.48
2018-07-12T06:36:22.426Z,67.32
2018-07-12T06:38:54.236Z,67.05
2018-07-12T06:41:28.374Z,67.00
2018-07-12T06:43:59.195Z,67.23
2018-07-12T06:46:29.783Z,67.06
2018-07-12T06:49:06.322Z,66.74
2018-07-12T06:51:36.127Z,67.00
2018-07-12T06:54:09.547Z,66.61
2018-07-12T06:56:40.706Z,66.49
2018-07-12T06:59:12.375Z,66.72
2018-07-12T07:01:43.712Z,66.92
2018-07-12T07:04:21.540Z,66.80
2018-07-12T07:06:56.876Z,66.84
2018-07-12T07:09:27.615Z,67.06
2018-07-12T07:11:58.879Z,66.87
2018-07-12T07:14:30.199Z,66.69
2018-07-12T07:17:08.242Z,66.77
2018-07-12T07:19:38.671Z,66.76
2018-07-12T07:22:10.597Z,66.49
2018-07-12T07:24:41.104Z,66.66
2018-07-12T07:27:11.705Z,66.81
2018-07-12T07:29:41.712Z,66.60
2018-07-12T07:32:14.237Z,66.60
2018-07-12T07:34:44.801Z,66.97
2018-07-12T07:37:16.576Z,66.79
2018-07-12T07:39:54.628Z,66.50
2018-07-12T07:42:25.037Z,66.74
2018-07-12T07:44:55.470Z,66.71
2018-07-12T07:47:26.808Z,66.48
2018-07-12T07:49:57.637Z,66.56
2018-07-12T07:52:36.109Z,66.44
2018-07-12T07:55:08.179Z,66.32
2018-07-12T07:57:47.634Z,66.38
2018-07-12T08:00:23.861Z,66.35
2018-07-12T08:02:55.327Z,66.32
2018-07-12T08:05:30.897Z,66.29
2018-07-12T08:08:02.058Z,66.11
2018-07-12T08:10:32.581Z,66.09
2018-07-12T08:13:02.580Z,65.80
2018-07-12T08:15:38.413Z,66.01
2018-07-12T08:18:09.635Z,65.93
2018-07-12T08:20:44.292Z,66.06
2018-07-12T08:23:16.220Z,66.00
2018-07-12T08:25:46.573Z,66.04
2018-07-12T08:28:29.699Z,65.69
2018-07-12T08:31:06.213Z,65.85
2018-07-12T08:33:48.774Z,65.97
2018-07-12T08:36:24.061Z,65.92
2018-07-12T08:41:38.017Z,66.10
2018-07-12T08:44:07.399Z,65.75
2018-07-12T08:46:39.233Z,65.60
2018-07-12T08:49:10.431Z,65.46
2018-07-12T08:51:48.338Z,65.36
2018-07-12T08:54:20.806Z,65.50
2018-07-12T08:56:50.292Z,65.62
2018-07-12T08:59:21.889Z,65.44
2018-07-12T09:01:52.557Z,65.38
2018-07-12T09:04:21.924Z,65.40
2018-07-12T09:06:53.366Z,65.67
2018-07-12T09:09:22.807Z,65.41
2018-07-12T09:11:52.342Z,65.88
2018-07-12T09:14:26.240Z,66.12
2018-07-12T09:16:56.596Z,65.62
2018-07-12T09:19:28.966Z,65.21
2018-07-12T09:21:59.565Z,65.44
2018-07-12T09:24:30.631Z,65.33
2018-07-12T09:27:02.598Z,64.92
2018-07-12T09:29:32.568Z,65.03
2018-07-12T09:32:07.137Z,64.99
2018-07-12T09:34:38.288Z,65.20
2018-07-12T09:37:07.778Z,65.32
2018-07-12T09:39:38.620Z,65.22
2018-07-12T09:42:09.201Z,65.34
2018-07-12T09:44:39.996Z,65.62
2018-07-12T09:47:09.607Z,65.46
2018-07-12T09:49:40.769Z,65.71
2018-07-12T09:52:17.141Z,65.25
2018-07-12T09:54:59.410Z,65.43
2018-07-12T09:57:41.289Z,65.30
2018-07-12T10:00:11.230Z,65.41
2018-07-12T10:02:45.424Z,65.38
2018-07-12T10:05:20.726Z,65.30
2018-07-12T10:07:51.171Z,65.24
2018-07-12T10:10:24.688Z,65.06
2018-07-12T10:12:59.728Z,64.98
2018-07-12T10:15:35.504Z,65.26
2018-07-12T10:18:10.394Z,65.77
2018-07-12T10:20:41.320Z,65.61
2018-07-12T10:23:14.305Z,65.15
2018-07-12T10:25:49.579Z,65.60
2018-07-12T10:28:20.748Z,65.45
2018-07-12T10:30:53.459Z,65.53
2018-07-12T10:33:26.218Z,65.77
2018-07-12T10:35:56.001Z,65.25
2018-07-12T10:38:25.532Z,65.39
2018-07-12T10:41:00.000Z,65.46
2018-07-12T10:43:30.786Z,65.43
2018-07-12T10:46:02.830Z,65.17
2018-07-12T10:48:32.585Z,66.10
2018-07-12T10:51:08.363Z,65.87
2018-07-12T10:53:39.971Z,65.72
2018-07-12T10:56:09.989Z,65.40
2018-07-12T10:58:41.494Z,65.67
2018-07-12T11:01:16.450Z,65.83
2018-07-12T11:03:48.098Z,65.67
2018-07-12T11:06:18.464Z,65.93
2018-07-12T11:11:25.035Z,65.43
2018-07-12T11:13:56.100Z,65.19
2018-07-12T11:16:28.116Z,64.96
2018-07-12T11:18:59.358Z,65.37
2018-07-12T11:21:31.128Z,65.56
2018-07-12T11:24:02.398Z,65.49
2018-07-12T11:26:32.780Z,66.04
2018-07-12T11:29:05.377Z,65.27
2018-07-12T11:31:38.514Z,65.33
2018-07-12T11:34:08.090Z,65.15
2018-07-12T11:36:40.268Z,65.06
2018-07-12T11:39:12.147Z,65.38
2018-07-12T11:41:41.473Z,65.27
2018-07-12T11:44:13.415Z,65.51
2018-07-12T11:46:45.206Z,65.62
2018-07-12T11:49:19.781Z,65.78
2018-07-12T11:51:50.611Z,65.81
2018-07-12T11:54:21.603Z,65.00
2018-07-12T11:56:52.094Z,65.90
2018-07-12T11:59:23.573Z,65.71
2018-07-12T12:01:58.308Z,65.65
2018-07-12T12:04:28.558Z,65.53
2018-07-12T12:07:01.236Z,65.66
2018-07-12T12:09:31.105Z,65.95
2018-07-12T12:12:00.377Z,66.07
2018-07-12T12:14:31.978Z,65.66
2018-07-12T12:17:01.475Z,65.63
2018-07-12T12:19:32.932Z,66.00
2018-07-12T12:22:08.267Z,65.88
2018-07-12T12:24:40.809Z,65.98
2018-07-12T12:27:11.297Z,65.55
2018-07-12T12:29:41.625Z,65.87
2018-07-12T12:32:11.463Z,65.75
2018-07-12T12:34:41.777Z,65.90
2018-07-12T12:37:16.133Z,65.74
2018-07-12T12:39:45.428Z,65.36
2018-07-12T12:42:16.783Z,65.52
2018-07-12T12:44:49.364Z,65.82
2018-07-12T12:47:23.836Z,65.30
2018-07-12T12:49:54.347Z,65.49
2018-07-12T12:52:23.895Z,65.91
2018-07-12T12:54:53.544Z,65.84
2018-07-12T12:57:25.264Z,65.51
2018-07-12T12:59:59.428Z,65.78
2018-07-12T13:02:35.425Z,65.32
2018-07-12T13:05:09.307Z,65.89
2018-07-12T13:07:44.277Z,65.99
2018-07-12T13:10:18.086Z,66.03
2018-07-12T13:12:47.325Z,65.70
2018-07-12T13:15:18.416Z,65.71
2018-07-12T13:17:49.413Z,65.80
2018-07-12T13:20:20.229Z,65.53
2018-07-12T13:22:53.926Z,66.24
2018-07-12T13:25:24.744Z,65.60
2018-07-12T13:27:57.313Z,66.02
2018-07-12T13:30:28.109Z,65.57
2018-07-12T13:33:02.782Z,65.29
2018-07-12T13:35:35.857Z,65.10
2018-07-12T13:38:07.994Z,64.63
2018-07-12T13:40:37.361Z,65.25
2018-07-12T13:43:07.592Z,65.18
2018-07-12T13:45:44.201Z,65.27
2018-07-12T13:48:13.936Z,65.50
2018-07-12T13:50:43.391Z,65.25
2018-07-12T13:53:14.640Z,65.43
2018-07-12T13:55:46.315Z,65.09
2018-07-12T13:58:15.513Z,64.91
2018-07-12T14:00:45.238Z,65.27
2018-07-12T14:03:14.618Z,65.66
2018-07-12T14:05:44.702Z,65.57
2018-07-12T14:08:16.592Z,65.29
2018-07-12T14:11:03.470Z,65.25
2018-07-12T14:16:03.537Z,64.87
2018-07-12T14:18:34.932Z,64.47
2018-07-12T14:21:09.430Z,64.50
2018-07-12T14:23:42.278Z,64.52
2018-07-12T14:26:12.594Z,64.63
2018-07-12T14:28:45.261Z,64.93
2018-07-12T14:31:16.684Z,65.73
2018-07-12T14:33:47.466Z,65.71
2018-07-12T14:36:18.935Z,65.36
2018-07-12T14:38:49.491Z,65.55
2018-07-12T14:41:20.182Z,65.42
2018-07-12T14:43:51.957Z,65.19
2018-07-12T14:46:21.664Z,64.36
2018-07-12T14:48:51.564Z,64.59
2018-07-12T14:51:23.366Z,65.38
2018-07-12T14:53:53.712Z,64.58
2018-07-12T14:56:24.382Z,64.55
2018-07-12T14:58:53.721Z,64.91
2018-07-12T15:01:24.880Z,64.99
2018-07-12T15:03:55.611Z,64.97
2018-07-12T15:06:27.402Z,64.46
2018-07-12T15:09:00.313Z,64.29
2018-07-12T15:11:30.677Z,64.68
2018-07-12T15:14:01.252Z,64.29
2018-07-12T15:16:31.433Z,64.51
2018-07-12T15:19:05.508Z,64.48
2018-07-12T15:21:36.391Z,64.29
2018-07-12T15:24:07.556Z,64.57
2018-07-12T15:26:37.358Z,64.31
2018-07-12T15:30:20.847Z,65.09
2018-07-12T15:32:52.942Z,64.40
2018-07-12T15:35:23.013Z,64.37
2018-07-12T15:37:52.584Z,64.53
2018-07-12T15:40:25.481Z,64.16
2018-07-12T15:42:57.993Z,64.19
2018-07-12T15:45:29.914Z,63.69
2018-07-12T15:47:59.958Z,64.69
2018-07-12T15:50:29.947Z,64.54
2018-07-12T15:53:00.828Z,64.90
2018-07-12T15:55:38.157Z,64.41
2018-07-12T15:58:10.201Z,64.78
2018-07-12T16:00:46.491Z,64.54
2018-07-12T16:03:23.128Z,64.46
2018-07-12T16:05:55.662Z,64.88
2018-07-12T16:08:30.081Z,64.94
2018-07-12T16:10:59.884Z,65.01
2018-07-12T16:13:31.059Z,65.34
2018-07-12T16:16:01.423Z,64.83
2018-07-12T16:18:33.090Z,65.18
2018-07-12T16:21:06.321Z,65.79
2018-07-12T16:23:37.284Z,65.25
2018-07-12T16:26:11.474Z,65.60
2018-07-12T16:28:41.971Z,65.19
2018-07-12T16:31:15.591Z,65.30
2018-07-12T16:33:45.227Z,65.45
2018-07-12T16:36:15.398Z,65.10
2018-07-12T16:38:48.439Z,64.90
2018-07-12T16:41:19.352Z,65.59
2018-07-12T16:43:50.002Z,64.76
2018-07-12T16:46:21.307Z,64.82
2018-07-12T16:48:51.566Z,64.77
2018-07-12T16:51:21.557Z,64.51
2018-07-12T16:53:56.051Z,64.90
2018-07-12T16:56:25.825Z,64.79
2018-07-12T16:58:58.793Z,64.60
2018-07-12T17:01:28.573Z,64.34
2018-07-12T17:03:58.955Z,64.22
2018-07-12T17:06:29.042Z,64.50
2018-07-12T17:08:59.217Z,64.10
2018-07-12T17:11:30.745Z,64.05
2018-07-12T17:14:00.500Z,64.29
2018-07-12T17:16:33.904Z,63.93
2018-07-12T17:19:05.148Z,64.83
2018-07-12T17:21:35.670Z,64.32
2018-07-12T17:24:07.785Z,63.73
2018-07-12T17:26:38.674Z,64.64
2018-07-12T17:29:09.364Z,64.34
2018-07-12T17:31:40.479Z,65.29
2018-07-12T17:34:11.282Z,65.52
2018-07-12T17:36:41.132Z,65.80
2018-07-12T17:39:11.874Z,65.31
2018-07-12T17:41:43.067Z,65.15
2018-07-12T17:44:16.348Z,65.12
2018-07-12T17:46:49.216Z,65.38
2018-07-12T17:49:18.418Z,65.19
2018-07-12T17:51:59.560Z,65.55
2018-07-12T17:54:29.451Z,65.20
2018-07-12T17:57:00.441Z,65.66
2018-07-12T17:59:32.200Z,65.82
2018-07-12T18:02:03.243Z,65.84
2018-07-12T18:04:38.402Z,65.49
2018-07-12T18:07:12.112Z,66.17
2018-07-12T18:09:43.097Z,66.50
2018-07-12T18:12:16.990Z,66.72
2018-07-12T18:14:51.814Z,66.78
2018-07-12T18:17:24.284Z,67.33
2018-07-12T18:20:01.044Z,67.35
2018-07-12T18:22:31.746Z,67.18
2018-07-12T18:25:12.414Z,67.34
2018-07-12T18:27:42.133Z,67.35
2018-07-12T18:30:13.308Z,66.82
2018-07-12T18:32:47.200Z,67.02
2018-07-12T18:35:19.855Z,66.72
2018-07-12T18:37:57.196Z,66.73
2018-07-12T18:40:28.242Z,66.42
2018-07-12T18:43:03.703Z,66.63
2018-07-12T18:45:40.042Z,66.49
2018-07-12T18:48:12.783Z,66.62
2018-07-12T18:50:42.781Z,66.44
2018-07-12T18:53:21.078Z,66.04
2018-07-12T18:55:50.342Z,66.38
2018-07-12T18:58:19.956Z,66.36
2018-07-12T19:00:50.544Z,66.41
2018-07-12T19:03:24.719Z,65.88
2018-07-12T19:05:55.408Z,66.29
2018-07-12T19:08:27.615Z,66.11
2018-07-12T19:11:04.138Z,66.04
2018-07-12T19:13:39.164Z,65.98
2018-07-12T19:16:08.573Z,65.63
2018-07-12T19:18:39.353Z,65.67
2018-07-12T19:21:09.511Z,65.99
2018-07-12T19:23:38.989Z,65.77
2018-07-12T19:26:09.221Z,65.44
2018-07-12T19:28:39.281Z,65.57
2018-07-12T19:31:11.521Z,65.37
2018-07-12T19:33:42.587Z,65.70
2018-07-12T19:36:14.438Z,65.59
2018-07-12T19:38:45.725Z,65.29
2018-07-12T19:41:15.241Z,65.52
2018-07-12T19:43:46.265Z,65.43
2018-07-12T19:46:17.245Z,65.50
2018-07-12T19:48:48.591Z,65.21
2018-07-12T19:51:20.273Z,65.16
2018-07-12T19:53:53.698Z,65.41
2018-07-12T19:56:26.254Z,65.03
2018-07-12T19:58:57.933Z,64.91
2018-07-12T20:01:49.779Z,64.95
2018-07-12T20:07:32.036Z,65.04
2018-07-12T20:10:01.756Z,64.89
2018-07-12T20:12:33.362Z,64.77
2018-07-12T20:15:06.645Z,64.89
2018-07-12T20:17:37.021Z,65.36
2018-07-12T20:20:07.115Z,65.09
2018-07-12T20:22:38.260Z,65.27
2018-07-12T20:25:10.260Z,64.95
2018-07-12T20:27:41.901Z,65.05
2018-07-12T20:30:12.705Z,65.33
2018-07-12T20:32:42.694Z,65.35
2018-07-12T20:35:13.412Z,65.22
2018-07-12T20:37:44.356Z,65.30
2018-07-12T20:40:13.732Z,65.29
2018-07-12T20:42:44.617Z,65.62
2018-07-12T20:45:14.840Z,65.59
2018-07-12T20:47:44.227Z,65.30
2018-07-12T20:50:17.438Z,65.67
2018-07-12T20:52:49.016Z,65.75
2018-07-12T20:55:19.120Z,65.33
2018-07-12T20:57:49.901Z,65.36
2018-07-12T21:00:21.236Z,65.68
2018-07-12T21:02:51.996Z,65.78
2018-07-12T21:05:21.693Z,65.46
2018-07-12T21:07:51.344Z,65.97
2018-07-12T21:10:23.372Z,65.64
2018-07-12T21:12:56.075Z,65.93
2018-07-12T21:15:26.010Z,65.75
2018-07-12T21:17:56.514Z,67.10
2018-07-12T21:20:33.287Z,67.95
2018-07-12T21:23:04.720Z,68.90
2018-07-12T21:25:35.801Z,68.72
2018-07-12T21:28:05.343Z,68.94
2018-07-12T21:30:37.851Z,69.21
2018-07-12T21:33:08.351Z,69.49
2018-07-12T21:35:38.560Z,69.74
2018-07-12T21:38:12.696Z,69.51
2018-07-12T21:40:42.340Z,69.38
2018-07-12T21:43:12.520Z,69.59
2018-07-12T21:45:45.891Z,69.36
2018-07-12T21:48:20.456Z,69.61
2018-07-12T21:50:52.412Z,69.65
2018-07-12T21:53:24.679Z,69.52
2018-07-12T21:55:57.288Z,69.72
2018-07-12T21:58:28.342Z,69.61
2018-07-12T22:00:58.567Z,69.75
2018-07-12T22:03:30.286Z,69.43
2018-07-12T22:06:06.296Z,69.80
2018-07-12T22:08:39.683Z,69.71
2018-07-12T22:11:11.365Z,69.61
2018-07-12T22:13:41.275Z,69.50
2018-07-12T22:16:13.334Z,69.65
2018-07-12T22:18:42.736Z,69.78
2018-07-12T22:21:12.032Z,69.58
2018-07-12T22:23:43.954Z,69.56
2018-07-12T22:26:14.213Z,69.36
2018-07-12T22:28:44.384Z,69.55
2018-07-12T22:31:18.674Z,69.41
2018-07-12T22:33:49.281Z,69.52
2018-07-12T22:36:20.607Z,69.44
2018-07-12T22:38:50.949Z,69.25
2018-07-12T22:41:20.478Z,69.67
2018-07-12T22:43:51.857Z,69.71
2018-07-12T22:46:22.727Z,69.53
2018-07-12T22:48:52.477Z,69.45
2018-07-12T22:51:24.436Z,69.48
2018-07-12T22:54:01.894Z,69.40
2018-07-12T22:56:36.004Z,69.87
2018-07-12T22:59:05.416Z,69.90
2018-07-12T23:01:37.033Z,69.53
2018-07-12T23:04:06.498Z,69.80
2018-07-12T23:06:37.482Z,69.77
2018-07-12T23:09:08.127Z,69.73
2018-07-12T23:11:37.512Z,69.89
2018-07-12T23:14:07.720Z,69.89
2018-07-12T23:16:37.373Z,69.97
2018-07-12T23:19:06.802Z,70.18
2018-07-12T23:21:38.938Z,70.03
2018-07-12T23:24:09.076Z,69.79
2018-07-12T23:26:38.732Z,69.97
2018-07-12T23:29:12.615Z,69.67
2018-07-12T23:31:42.233Z,70.04
2018-07-12T23:34:11.504Z,70.19
2018-07-12T23:36:41.093Z,70.18
2018-07-12T23:39:10.715Z,70.31
2018-07-12T23:41:41.198Z,70.61
2018-07-12T23:44:10.812Z,70.49
2018-07-12T23:46:41.328Z,70.36
2018-07-12T23:49:11.143Z,70.39
2018-07-12T23:51:41.866Z,70.46
2018-07-12T23:54:12.454Z,70.31
2018-07-12T23:56:41.664Z,70.31
2018-07-12T23:59:11.896Z,70.39
